createdAt,value
2018-06-28T00:01:08.601Z,51.20
2018-06-28T00:03:36.973Z,52.30
2018-06-28T00:06:05.377Z,51.60
2018-06-28T00:08:33.647Z,50.90
2018-06-28T00:11:02.010Z,50.90
2018-06-28T00:13:30.290Z,51.70
2018-06-28T00:15:58.577Z,52.30
2018-06-28T00:18:27.248Z,52.20
2018-06-28T00:20:55.526Z,51.80
2018-06-28T00:23:23.854Z,51.40
2018-06-28T00:25:52.167Z,51.90
2018-06-28T00:28:20.385Z,51.30
2018-06-28T00:30:48.821Z,50.90
2018-06-28T00:33:17.132Z,52.10
2018-06-28T00:35:45.402Z,51.50
2018-06-28T00:38:13.783Z,51.50
2018-06-28T00:40:42.017Z,51.40
2018-06-28T00:43:10.427Z,52.10
2018-06-28T00:45:38.774Z,51.80
2018-06-28T00:48:07.102Z,51.20
2018-06-28T00:50:35.380Z,51.10
2018-06-28T00:53:03.719Z,51.20
2018-06-28T00:55:32.112Z,51.10
2018-06-28T01:00:28.467Z,51.40
2018-06-28T01:02:56.847Z,51.30
2018-06-28T01:05:25.173Z,50.90
2018-06-28T01:07:53.477Z,50.90
2018-06-28T01:10:21.743Z,51.00
2018-06-28T01:12:50.098Z,51.00
2018-06-28T01:15:18.444Z,51.50
2018-06-28T01:17:46.713Z,51.30
2018-06-28T01:20:15.422Z,51.20
2018-06-28T01:22:43.712Z,51.20
2018-06-28T01:25:12.003Z,51.00
2018-06-28T01:27:40.356Z,51.10
2018-06-28T01:30:08.734Z,51.20
2018-06-28T01:32:37.073Z,51.40
2018-06-28T01:35:05.444Z,51.50
2018-06-28T01:37:33.764Z,52.10
2018-06-28T01:40:02.083Z,52.50
2018-06-28T01:42:48.612Z,52.40
2018-06-28T01:45:16.909Z,52.30
2018-06-28T01:47:45.116Z,51.90
2018-06-28T01:50:13.400Z,52.00
2018-06-28T01:52:41.936Z,52.70
2018-06-28T01:55:10.328Z,52.80
2018-06-28T01:57:38.816Z,52.80
2018-06-28T02:00:07.338Z,53.20
2018-06-28T02:02:35.657Z,53.00
2018-06-28T02:05:03.968Z,53.40
2018-06-28T02:07:33.062Z,52.90
2018-06-28T02:10:01.403Z,53.10
2018-06-28T02:12:29.792Z,53.60
2018-06-28T02:14:58.329Z,54.00
2018-06-28T02:17:26.591Z,56.10
2018-06-28T02:19:54.919Z,56.80
2018-06-28T02:22:23.225Z,56.00
2018-06-28T02:27:19.526Z,57.00
2018-06-28T02:29:47.921Z,57.00
2018-06-28T02:32:16.245Z,57.50
2018-06-28T02:34:44.516Z,57.70
2018-06-28T02:37:12.813Z,57.50
2018-06-28T02:39:41.379Z,56.20
2018-06-28T02:42:09.653Z,55.60
2018-06-28T02:44:38.044Z,55.50
2018-06-28T02:47:06.392Z,55.80
2018-06-28T02:49:34.759Z,56.00
2018-06-28T02:52:03.227Z,55.80
2018-06-28T02:54:31.505Z,56.00
2018-06-28T02:56:59.789Z,56.20
2018-06-28T02:59:28.075Z,55.90
2018-06-28T03:01:56.468Z,55.80
2018-06-28T03:04:24.775Z,56.20
2018-06-28T03:06:53.073Z,56.70
2018-06-28T03:09:21.355Z,55.80
2018-06-28T03:11:49.616Z,55.80
2018-06-28T03:14:17.996Z,55.70
2018-06-28T03:16:46.340Z,56.00
2018-06-28T03:19:14.621Z,55.70
2018-06-28T03:21:42.956Z,56.10
2018-06-28T03:24:11.207Z,56.20
2018-06-28T03:26:39.645Z,56.10
2018-06-28T03:29:07.963Z,56.10
2018-06-28T03:31:36.526Z,56.30
2018-06-28T03:34:04.877Z,56.50
2018-06-28T03:36:33.097Z,56.80
2018-06-28T03:39:01.397Z,57.40
2018-06-28T03:41:29.705Z,57.20
2018-06-28T03:43:57.969Z,57.30
2018-06-28T03:46:26.276Z,57.30
2018-06-28T03:48:54.639Z,57.50
2018-06-28T03:51:22.935Z,57.40
2018-06-28T03:53:51.208Z,57.50
2018-06-28T03:56:19.484Z,57.80
2018-06-28T03:58:47.910Z,57.90
2018-06-28T04:01:16.193Z,58.20
2018-06-28T04:03:44.580Z,58.70
2018-06-28T04:06:12.880Z,58.70
2018-06-28T04:08:41.225Z,58.70
2018-06-28T04:11:09.522Z,58.80
2018-06-28T04:16:06.129Z,58.70
2018-06-28T04:18:36.039Z,58.60
2018-06-28T04:21:04.331Z,58.70
2018-06-28T04:23:32.742Z,59.20
2018-06-28T04:26:00.982Z,59.20
2018-06-28T04:28:29.285Z,59.30
2018-06-28T04:30:57.605Z,59.10
2018-06-28T04:33:25.876Z,59.10
2018-06-28T04:35:54.279Z,59.30
2018-06-28T04:38:22.574Z,59.50
2018-06-28T04:40:50.937Z,59.40
2018-06-28T04:43:19.215Z,59.50
2018-06-28T04:48:15.601Z,59.80
2018-06-28T04:50:43.941Z,59.60
2018-06-28T04:53:12.268Z,58.20
2018-06-28T04:55:40.594Z,59.00
2018-06-28T04:58:09.135Z,57.90
2018-06-28T05:00:37.980Z,56.90
2018-06-28T05:03:06.264Z,57.70
2018-06-28T05:05:34.578Z,56.80
2018-06-28T05:08:02.972Z,56.10
2018-06-28T05:10:31.280Z,55.90
2018-06-28T05:12:59.593Z,55.50
2018-06-28T05:15:27.897Z,55.40
2018-06-28T05:17:56.181Z,55.30
2018-06-28T05:20:24.460Z,55.30
2018-06-28T05:22:52.992Z,55.30
2018-06-28T05:25:21.590Z,56.00
2018-06-28T05:27:50.015Z,55.50
2018-06-28T05:30:18.436Z,55.00
2018-06-28T05:32:46.764Z,55.50
2018-06-28T05:35:15.016Z,55.10
2018-06-28T05:37:43.348Z,54.40
2018-06-28T05:40:11.693Z,54.30
2018-06-28T05:42:39.922Z,54.40
2018-06-28T05:45:08.175Z,54.80
2018-06-28T05:47:36.480Z,54.20
2018-06-28T05:50:05.028Z,53.50
2018-06-28T05:52:33.372Z,53.50
2018-06-28T05:55:01.712Z,53.20
2018-06-28T05:57:30.026Z,53.10
2018-06-28T05:59:58.375Z,52.90
2018-06-28T06:02:26.792Z,52.90
2018-06-28T06:04:55.051Z,53.10
2018-06-28T06:07:23.380Z,52.70
2018-06-28T06:09:51.631Z,52.40
2018-06-28T06:12:19.994Z,52.30
2018-06-28T06:14:48.735Z,52.10
2018-06-28T06:17:17.070Z,51.90
2018-06-28T06:19:46.033Z,51.90
2018-06-28T06:22:14.312Z,51.40
2018-06-28T06:24:42.781Z,51.50
2018-06-28T06:27:11.130Z,51.40
2018-06-28T06:29:39.354Z,51.70
2018-06-28T06:32:07.663Z,51.10
2018-06-28T06:34:35.953Z,51.00
2018-06-28T06:37:04.427Z,51.00
2018-06-28T06:39:32.812Z,50.80
2018-06-28T06:42:01.052Z,50.90
2018-06-28T06:44:29.327Z,51.30
2018-06-28T06:46:57.593Z,51.00
2018-06-28T06:49:25.833Z,51.00
2018-06-28T06:51:54.190Z,50.90
2018-06-28T06:54:22.455Z,51.10
2018-06-28T06:56:50.798Z,51.10
2018-06-28T06:59:19.061Z,51.10
2018-06-28T07:01:47.931Z,50.60
2018-06-28T07:04:16.244Z,50.70
2018-06-28T07:06:44.547Z,50.60
2018-06-28T07:09:13.523Z,50.30
2018-06-28T07:11:42.029Z,50.20
2018-06-28T07:14:11.058Z,49.90
2018-06-28T07:16:39.457Z,50.10
2018-06-28T07:19:07.964Z,50.10
2018-06-28T07:21:36.229Z,50.00
2018-06-28T07:24:04.745Z,50.20
2018-06-28T07:26:33.035Z,50.20
2018-06-28T07:29:01.371Z,49.80
2018-06-28T07:31:29.688Z,49.60
2018-06-28T07:33:57.922Z,49.50
2018-06-28T07:36:26.227Z,49.50
2018-06-28T07:38:54.511Z,49.50
2018-06-28T07:41:22.795Z,49.60
2018-06-28T07:46:19.220Z,49.00
2018-06-28T07:48:48.247Z,48.70
2018-06-28T07:51:16.544Z,48.40
2018-06-28T07:53:44.883Z,48.30
2018-06-28T07:56:13.199Z,48.10
2018-06-28T07:58:41.428Z,47.90
2018-06-28T08:01:09.767Z,47.90
2018-06-28T08:03:38.012Z,47.70
2018-06-28T08:06:06.351Z,47.90
2018-06-28T08:08:35.908Z,47.50
2018-06-28T08:11:04.210Z,47.70
2018-06-28T08:13:32.526Z,47.00
2018-06-28T08:16:00.817Z,47.10
2018-06-28T08:18:29.138Z,47.00
2018-06-28T08:20:58.897Z,47.30
2018-06-28T08:23:27.205Z,47.30
2018-06-28T08:25:55.465Z,47.10
2018-06-28T08:28:24.112Z,46.60
2018-06-28T08:30:52.435Z,46.60
2018-06-28T08:33:20.660Z,46.20
2018-06-28T08:35:49.027Z,46.40
2018-06-28T08:38:17.296Z,46.40
2018-06-28T08:40:45.648Z,46.40
2018-06-28T08:43:14.079Z,46.40
2018-06-28T08:45:42.429Z,46.00
2018-06-28T08:48:10.834Z,45.90
2018-06-28T08:50:39.917Z,45.70
2018-06-28T08:53:08.220Z,45.30
2018-06-28T08:55:36.580Z,45.40
2018-06-28T08:58:05.054Z,45.60
2018-06-28T09:00:33.339Z,45.00
2018-06-28T09:03:01.640Z,45.20
2018-06-28T09:05:30.019Z,45.00
2018-06-28T09:07:58.386Z,44.80
2018-06-28T09:10:26.676Z,44.50
2018-06-28T09:12:55.004Z,44.20
2018-06-28T09:15:23.376Z,43.80
2018-06-28T09:17:51.677Z,43.50
2018-06-28T09:20:20.160Z,43.60
2018-06-28T09:22:48.550Z,42.70
2018-06-28T09:25:16.847Z,42.20
2018-06-28T09:27:45.378Z,42.30
2018-06-28T09:30:13.704Z,42.60
2018-06-28T09:32:42.052Z,43.00
2018-06-28T09:35:10.366Z,42.80
2018-06-28T09:37:38.705Z,42.50
2018-06-28T09:40:06.954Z,41.90
2018-06-28T09:42:35.416Z,41.10
2018-06-28T09:45:03.832Z,40.70
2018-06-28T09:47:32.201Z,40.40
2018-06-28T09:50:00.402Z,39.80
2018-06-28T09:52:28.683Z,39.30
2018-06-28T09:54:56.902Z,38.80
2018-06-28T09:57:25.199Z,37.60
2018-06-28T09:59:53.484Z,37.50
2018-06-28T10:02:21.804Z,36.80
2018-06-28T10:04:50.060Z,36.80
2018-06-28T10:07:18.340Z,36.60
2018-06-28T10:09:46.676Z,36.70
2018-06-28T10:12:14.951Z,36.80
2018-06-28T10:14:43.399Z,36.70
2018-06-28T10:17:11.904Z,37.20
2018-06-28T10:19:40.130Z,37.40
2018-06-28T10:22:08.411Z,38.20
2018-06-28T10:24:36.998Z,38.60
2018-06-28T10:27:05.198Z,39.40
2018-06-28T10:29:34.464Z,40.10
2018-06-28T10:32:02.816Z,40.20
2018-06-28T10:34:31.118Z,40.70
2018-06-28T10:37:00.001Z,41.30
2018-06-28T10:39:28.248Z,41.50
2018-06-28T10:41:56.580Z,42.20
2018-06-28T10:44:24.846Z,42.90
2018-06-28T10:46:53.578Z,43.10
2018-06-28T10:49:21.898Z,43.30
2018-06-28T10:51:50.203Z,43.90
2018-06-28T10:54:18.456Z,44.40
2018-06-28T10:56:47.386Z,44.60
2018-06-28T10:59:15.708Z,44.20
2018-06-28T11:04:12.412Z,43.90
2018-06-28T11:06:40.726Z,43.50
2018-06-28T11:09:10.133Z,43.10
2018-06-28T11:11:39.064Z,42.80
2018-06-28T11:14:07.346Z,42.80
2018-06-28T11:16:35.811Z,42.60
2018-06-28T11:19:04.284Z,42.40
2018-06-28T11:21:33.031Z,42.70
2018-06-28T11:24:01.322Z,43.50
2018-06-28T11:26:29.620Z,43.30
2018-06-28T11:28:57.907Z,42.30
2018-06-28T11:31:26.154Z,43.10
2018-06-28T11:33:55.009Z,42.20
2018-06-28T11:36:23.470Z,42.50
2018-06-28T11:41:20.064Z,43.40
2018-06-28T11:43:49.243Z,43.50
2018-06-28T11:46:17.636Z,42.40
2018-06-28T11:48:46.050Z,43.10
2018-06-28T11:51:14.759Z,42.20
2018-06-28T11:53:43.059Z,43.00
2018-06-28T11:56:11.355Z,42.80
2018-06-28T11:58:39.654Z,42.70
2018-06-28T12:01:07.984Z,42.50
2018-06-28T12:03:36.583Z,43.20
2018-06-28T12:06:05.056Z,42.10
2018-06-28T12:08:33.279Z,42.90
2018-06-28T12:11:01.544Z,42.70
2018-06-28T12:13:29.997Z,42.20
2018-06-28T12:15:58.317Z,42.30
2018-06-28T12:18:26.557Z,42.50
2018-06-28T12:20:55.231Z,42.70
2018-06-28T12:23:23.492Z,42.40
2018-06-28T12:25:51.832Z,42.30
2018-06-28T12:28:20.051Z,42.00
2018-06-28T12:30:48.389Z,42.30
2018-06-28T12:33:16.697Z,41.70
2018-06-28T12:35:44.968Z,41.80
2018-06-28T12:38:13.328Z,41.70
2018-06-28T12:40:41.656Z,41.60
2018-06-28T12:43:09.968Z,41.70
2018-06-28T12:45:38.288Z,41.20
2018-06-28T12:48:10.198Z,41.40
2018-06-28T12:50:40.043Z,41.00
2018-06-28T12:53:10.036Z,40.70
2018-06-28T12:56:50.897Z,41.30
2018-06-28T12:59:20.574Z,40.90
2018-06-28T13:01:49.363Z,40.80
2018-06-28T13:04:17.664Z,40.90
2018-06-28T13:06:46.001Z,40.20
2018-06-28T13:09:17.480Z,39.90
2018-06-28T13:11:45.779Z,40.70
2018-06-28T13:14:14.084Z,41.20
2018-06-28T13:16:42.419Z,40.80
2018-06-28T13:21:38.708Z,40.00
2018-06-28T13:24:07.008Z,40.40
2018-06-28T13:26:35.358Z,40.90
2018-06-28T13:29:03.656Z,40.80
2018-06-28T13:31:31.859Z,40.40
2018-06-28T13:34:00.137Z,39.50
2018-06-28T13:36:28.340Z,39.30
2018-06-28T13:38:56.643Z,39.60
2018-06-28T13:41:25.179Z,39.50
2018-06-28T13:43:53.708Z,40.00
2018-06-28T13:46:21.956Z,40.30
2018-06-28T13:48:50.219Z,39.90
2018-06-28T13:51:18.542Z,39.80
2018-06-28T13:53:47.321Z,40.00
2018-06-28T13:56:15.631Z,40.50
2018-06-28T13:58:43.950Z,39.70
2018-06-28T14:01:12.196Z,39.90
2018-06-28T14:03:40.527Z,39.70
2018-06-28T14:06:09.592Z,39.90
2018-06-28T14:08:37.929Z,39.80
2018-06-28T14:11:07.099Z,39.10
2018-06-28T14:13:35.544Z,39.30
2018-06-28T14:16:03.895Z,39.20
2018-06-28T14:18:32.163Z,38.40
2018-06-28T14:21:00.614Z,38.60
2018-06-28T14:23:28.876Z,38.70
2018-06-28T14:25:57.548Z,38.40
2018-06-28T14:28:25.999Z,38.60
2018-06-28T14:30:54.306Z,38.80
2018-06-28T14:33:22.568Z,39.60
2018-06-28T14:35:50.900Z,39.80
2018-06-28T14:38:19.182Z,39.90
2018-06-28T14:40:47.560Z,39.40
2018-06-28T14:43:16.108Z,38.80
2018-06-28T14:45:44.724Z,38.30
2018-06-28T14:48:13.018Z,37.90
2018-06-28T14:50:41.310Z,39.00
2018-06-28T14:53:09.612Z,39.40
2018-06-28T14:55:37.866Z,39.60
2018-06-28T14:58:06.125Z,39.20
2018-06-28T15:00:34.391Z,38.40
2018-06-28T15:03:02.699Z,38.20
2018-06-28T15:05:30.936Z,38.30
2018-06-28T15:07:59.309Z,38.70
2018-06-28T15:10:27.710Z,39.10
2018-06-28T15:12:55.995Z,39.30
2018-06-28T15:15:24.263Z,39.40
2018-06-28T15:17:52.573Z,39.70
2018-06-28T15:20:20.876Z,39.90
2018-06-28T15:22:49.118Z,40.20
2018-06-28T15:25:17.428Z,40.50
2018-06-28T15:27:45.797Z,40.80
2018-06-28T15:30:14.080Z,40.90
2018-06-28T15:32:42.328Z,41.10
2018-06-28T15:35:10.733Z,41.30
2018-06-28T15:37:39.047Z,41.20
2018-06-28T15:40:08.048Z,40.90
2018-06-28T15:42:36.584Z,41.10
2018-06-28T15:45:05.147Z,41.20
2018-06-28T15:47:33.623Z,41.40
2018-06-28T15:50:01.885Z,41.70
2018-06-28T15:54:58.440Z,42.00
2018-06-28T15:57:26.742Z,42.50
2018-06-28T15:59:54.992Z,42.10
2018-06-28T16:02:23.206Z,42.10
2018-06-28T16:04:51.486Z,41.90
2018-06-28T16:07:20.033Z,42.00
2018-06-28T16:09:48.308Z,41.90
2018-06-28T16:12:16.616Z,41.80
2018-06-28T16:14:44.920Z,42.00
2018-06-28T16:17:13.247Z,42.10
2018-06-28T16:19:41.479Z,42.20
2018-06-28T16:22:09.800Z,42.80
2018-06-28T16:24:38.276Z,42.70
2018-06-28T16:27:06.587Z,42.60
2018-06-28T16:29:34.908Z,42.60
2018-06-28T16:32:03.127Z,42.90
2018-06-28T16:34:31.403Z,43.00
2018-06-28T16:36:59.663Z,43.20
2018-06-28T16:39:28.383Z,43.20
2018-06-28T16:41:57.074Z,43.20
2018-06-28T16:44:25.725Z,43.10
2018-06-28T16:46:54.332Z,42.80
2018-06-28T16:49:22.592Z,42.90
2018-06-28T16:51:50.892Z,42.00
2018-06-28T16:54:19.201Z,42.10
2018-06-28T16:56:47.580Z,42.30
2018-06-28T16:59:15.896Z,42.40
2018-06-28T17:04:12.177Z,42.50
2018-06-28T17:06:40.440Z,42.80
2018-06-28T17:09:09.970Z,42.80
2018-06-28T17:11:38.360Z,42.50
2018-06-28T17:14:07.480Z,42.50
2018-06-28T17:16:35.760Z,42.90
2018-06-28T17:19:04.046Z,42.60
2018-06-28T17:21:32.406Z,42.60
2018-06-28T17:24:00.655Z,42.60
2018-06-28T17:26:28.892Z,42.80
2018-06-28T17:28:57.204Z,42.90
2018-06-28T17:31:25.449Z,42.80
2018-06-28T17:33:53.772Z,42.90
2018-06-28T17:36:22.109Z,43.20
2018-06-28T17:38:50.371Z,43.20
2018-06-28T17:41:18.639Z,43.30
2018-06-28T17:43:46.941Z,43.50
2018-06-28T17:46:16.024Z,43.50
2018-06-28T17:48:44.652Z,43.60
2018-06-28T17:51:12.880Z,43.70
2018-06-28T17:53:41.107Z,43.90
2018-06-28T17:56:09.388Z,44.10
2018-06-28T17:58:37.705Z,44.30
2018-06-28T18:01:05.921Z,44.40
2018-06-28T18:03:34.433Z,44.50
2018-06-28T18:06:02.655Z,44.50
2018-06-28T18:08:30.899Z,44.80
2018-06-28T18:10:59.190Z,44.80
2018-06-28T18:13:27.452Z,45.00
2018-06-28T18:15:55.715Z,44.90
2018-06-28T18:18:24.494Z,44.90
2018-06-28T18:20:52.785Z,45.10
2018-06-28T18:23:21.145Z,45.10
2018-06-28T18:25:49.474Z,45.10
2018-06-28T18:28:17.688Z,45.20
2018-06-28T18:30:45.885Z,45.20
2018-06-28T18:33:14.195Z,45.00
2018-06-28T18:35:42.559Z,45.10
2018-06-28T18:38:10.836Z,45.30
2018-06-28T18:40:39.059Z,45.30
2018-06-28T18:43:07.324Z,45.40
2018-06-28T18:45:35.876Z,45.30
2018-06-28T18:48:04.161Z,45.20
2018-06-28T18:50:32.477Z,45.10
2018-06-28T18:53:01.387Z,45.30
2018-06-28T18:55:30.594Z,45.30
2018-06-28T18:57:58.830Z,45.40
2018-06-28T19:00:27.191Z,45.40
2018-06-28T19:02:56.660Z,45.50
2018-06-28T19:05:25.597Z,45.40
2018-06-28T19:07:54.043Z,45.40
2018-06-28T19:10:27.827Z,45.50
2018-06-28T19:12:56.269Z,45.40
2018-06-28T19:15:30.045Z,45.50
2018-06-28T19:17:58.747Z,45.50
2018-06-28T19:20:27.016Z,45.70
2018-06-28T19:23:01.018Z,46.10
2018-06-28T19:25:29.279Z,46.40
2018-06-28T19:27:57.543Z,46.60
2018-06-28T19:30:31.715Z,46.30
2018-06-28T19:33:00.052Z,46.10
2018-06-28T19:35:28.376Z,45.90
2018-06-28T19:37:56.641Z,46.00
2018-06-28T19:40:30.212Z,46.20
2018-06-28T19:43:06.249Z,46.30
2018-06-28T19:45:34.559Z,46.50
2018-06-28T19:48:02.937Z,46.30
2018-06-28T19:50:36.668Z,46.40
2018-06-28T19:53:11.755Z,46.50
2018-06-28T19:55:40.115Z,46.60
2018-06-28T19:58:10.509Z,46.70
2018-06-28T20:00:44.170Z,46.80
2018-06-28T20:03:18.400Z,47.10
2018-06-28T20:05:47.032Z,47.30
2018-06-28T20:08:15.971Z,47.20
2018-06-28T20:10:44.474Z,47.00
2018-06-28T20:13:18.992Z,47.00
2018-06-28T20:15:54.480Z,47.20
2018-06-28T20:18:28.672Z,47.30
2018-06-28T20:20:58.462Z,47.60
2018-06-28T20:23:27.279Z,47.60
2018-06-28T20:25:55.639Z,47.90
2018-06-28T20:28:29.694Z,47.80
2018-06-28T20:31:04.328Z,47.70
2018-06-28T20:33:38.844Z,47.70
2018-06-28T20:38:36.012Z,47.80
2018-06-28T20:41:04.291Z,48.10
2018-06-28T20:43:32.628Z,48.10
2018-06-28T20:46:00.911Z,48.20
2018-06-28T20:48:29.351Z,48.00
2018-06-28T20:50:57.629Z,48.10
2018-06-28T20:53:25.915Z,48.10
2018-06-28T20:55:54.147Z,48.40
2018-06-28T20:58:23.272Z,48.30
2018-06-28T21:00:51.594Z,48.50
2018-06-28T21:03:19.889Z,48.30
2018-06-28T21:05:48.175Z,48.30
2018-06-28T21:08:16.459Z,48.60
2018-06-28T21:10:44.655Z,48.80
2018-06-28T21:13:13.041Z,49.00
2018-06-28T21:15:41.322Z,49.20
2018-06-28T21:18:09.563Z,49.40
2018-06-28T21:20:39.045Z,49.70
2018-06-28T21:23:07.347Z,49.80
2018-06-28T21:25:35.598Z,50.10
2018-06-28T21:28:03.827Z,50.30
2018-06-28T21:30:32.157Z,50.60
2018-06-28T21:33:00.457Z,50.60
2018-06-28T21:35:28.711Z,50.70
2018-06-28T21:37:56.995Z,50.90
2018-06-28T21:40:25.253Z,51.10
2018-06-28T21:42:53.549Z,51.20
2018-06-28T21:45:21.859Z,51.40
2018-06-28T21:47:50.187Z,51.50
2018-06-28T21:50:18.455Z,51.80
2018-06-28T21:52:46.842Z,51.80
2018-06-28T21:55:15.165Z,51.80
2018-06-28T21:57:43.404Z,52.00
2018-06-28T22:00:39.177Z,52.00
2018-06-28T22:03:08.411Z,52.40
2018-06-28T22:05:36.680Z,53.00
2018-06-28T22:08:05.447Z,53.10
2018-06-28T22:10:33.508Z,53.60
2018-06-28T22:13:01.937Z,53.60
2018-06-28T22:15:31.155Z,53.50
2018-06-28T22:18:03.694Z,53.70
2018-06-28T22:20:32.728Z,53.90
2018-06-28T22:23:01.050Z,53.80
2018-06-28T22:25:30.452Z,53.90
2018-06-28T22:27:58.777Z,54.00
2018-06-28T22:30:27.159Z,54.10
2018-06-28T22:32:55.732Z,54.30
2018-06-28T22:35:23.992Z,54.10
2018-06-28T22:37:52.269Z,54.50
2018-06-28T22:40:20.574Z,54.80
2018-06-28T22:42:48.788Z,55.20
2018-06-28T22:45:17.152Z,55.40
2018-06-28T22:47:45.452Z,55.30
2018-06-28T22:50:13.789Z,55.10
2018-06-28T22:52:42.041Z,55.20
2018-06-28T22:55:10.935Z,55.30
2018-06-28T22:57:39.170Z,55.30
2018-06-28T23:00:08.706Z,55.80
2018-06-28T23:02:37.110Z,55.80
2018-06-28T23:05:05.567Z,55.80
2018-06-28T23:07:33.894Z,55.70
2018-06-28T23:10:02.131Z,55.70
2018-06-28T23:12:30.335Z,55.70
2018-06-28T23:14:58.602Z,56.00
2018-06-28T23:17:26.855Z,56.10
2018-06-28T23:19:55.098Z,56.20
2018-06-28T23:22:34.669Z,56.30
2018-06-28T23:25:03.004Z,56.10
2018-06-28T23:27:31.259Z,56.50
2018-06-28T23:29:59.533Z,56.50
2018-06-28T23:32:27.809Z,56.60
2018-06-28T23:34:56.093Z,56.30
2018-06-28T23:37:24.436Z,56.30
2018-06-28T23:39:52.777Z,56.70
2018-06-28T23:42:21.021Z,56.70
2018-06-28T23:44:49.253Z,56.70
2018-06-28T23:47:17.511Z,57.00
2018-06-28T23:49:45.843Z,57.00
2018-06-28T23:54:42.062Z,57.30
2018-06-28T23:57:11.547Z,57.50
2018-06-28T23:59:39.833Z,57.60
